createdAt,value
2022-09-20T00:01:32.989Z,3.10
2022-09-20T00:04:05.843Z,2.70
2022-09-20T00:06:33.854Z,3.00
2022-09-20T00:09:01.629Z,2.63
2022-09-20T00:11:33.611Z,2.63
2022-09-20T00:14:03.762Z,2.50
2022-09-20T00:16:35.041Z,2.43
2022-09-20T00:19:04.459Z,2.20
2022-09-20T00:21:34.493Z,1.90
2022-09-20T00:24:01.910Z,2.80
2022-09-20T00:26:29.793Z,2.70
2022-09-20T00:28:59.090Z,2.33
2022-09-20T00:31:26.782Z,2.10
2022-09-20T00:34:17.393Z,2.53
2022-09-20T00:36:45.882Z,2.30
2022-09-20T00:39:15.982Z,2.67
2022-09-20T00:41:43.672Z,2.43
2022-09-20T00:44:53.962Z,3.20
2022-09-20T00:48:16.352Z,2.13
2022-09-20T00:51:00.351Z,2.87
2022-09-20T00:53:33.330Z,2.30
2022-09-20T00:56:05.417Z,2.37
2022-09-20T00:58:38.738Z,2.90
2022-09-20T01:01:07.219Z,3.10
2022-09-20T01:03:38.471Z,2.83
2022-09-20T01:06:12.299Z,2.70
2022-09-20T01:08:42.603Z,2.97
2022-09-20T01:11:09.773Z,3.57
2022-09-20T01:13:36.761Z,3.40
2022-09-20T01:16:05.878Z,3.97
2022-09-20T01:18:35.121Z,3.37
2022-09-20T01:21:04.371Z,2.50
2022-09-20T01:24:04.034Z,2.93
2022-09-20T01:27:04.062Z,2.40
2022-09-20T01:30:02.532Z,3.03
2022-09-20T01:33:04.477Z,2.30
2022-09-20T01:35:35.473Z,2.00
2022-09-20T01:38:43.784Z,2.30
2022-09-20T01:41:25.702Z,1.80
2022-09-20T01:44:16.039Z,1.90
2022-09-20T01:46:44.412Z,2.10
2022-09-20T01:49:40.412Z,2.00
2022-09-20T01:52:38.041Z,1.77
2022-09-20T01:55:29.569Z,2.43
2022-09-20T01:58:18.138Z,1.83
2022-09-20T02:01:08.683Z,2.03
2022-09-20T02:04:07.421Z,2.17
2022-09-20T02:07:11.119Z,1.83
2022-09-20T02:10:01.651Z,1.73
2022-09-20T02:12:51.381Z,2.10
2022-09-20T02:15:49.051Z,2.10
2022-09-20T02:18:39.014Z,2.00
2022-09-20T02:21:33.108Z,2.17
2022-09-20T02:24:57.042Z,1.60
2022-09-20T02:27:38.272Z,1.57
2022-09-20T02:30:28.851Z,1.67
2022-09-20T02:33:27.842Z,1.43
2022-09-20T02:36:05.259Z,1.70
2022-09-20T02:39:03.541Z,2.03
2022-09-20T02:41:53.209Z,1.53
2022-09-20T02:44:46.772Z,1.97
2022-09-20T02:47:53.943Z,1.50
2022-09-20T02:50:38.602Z,1.40
2022-09-20T02:53:39.962Z,1.63
2022-09-20T02:56:27.312Z,1.90
2022-09-20T02:59:18.598Z,1.57
2022-09-20T03:02:08.430Z,1.90
2022-09-20T03:05:35.011Z,1.63
2022-09-20T03:08:38.773Z,1.70
2022-09-20T03:11:48.121Z,2.03
2022-09-20T03:14:31.432Z,2.27
2022-09-20T03:17:36.762Z,2.47
2022-09-20T03:20:16.129Z,2.10
2022-09-20T03:22:53.201Z,1.87
2022-09-20T03:25:54.381Z,1.93
2022-09-20T03:28:36.251Z,1.93
2022-09-20T03:31:47.766Z,1.97
2022-09-20T03:34:45.961Z,2.37
2022-09-20T03:37:50.191Z,2.53
2022-09-20T03:40:55.379Z,2.27
2022-09-20T03:43:53.652Z,2.13
2022-09-20T03:46:45.391Z,1.87
2022-09-20T03:49:56.532Z,1.73
2022-09-20T03:53:06.353Z,2.30
2022-09-20T03:56:13.590Z,1.80
2022-09-20T03:59:15.019Z,1.70
2022-09-20T04:02:29.496Z,1.60
2022-09-20T04:05:13.375Z,1.60
2022-09-20T04:07:47.243Z,2.07
2022-09-20T04:10:35.814Z,2.23
2022-09-20T04:13:30.445Z,2.07
2022-09-20T04:16:44.665Z,1.60
2022-09-20T04:19:18.058Z,2.10
2022-09-20T04:22:00.050Z,1.70
2022-09-20T04:24:38.733Z,2.17
2022-09-20T04:27:26.213Z,1.60
2022-09-20T04:29:57.859Z,1.73
2022-09-20T04:32:41.391Z,2.00
2022-09-20T04:35:57.568Z,1.87
2022-09-20T04:38:25.090Z,2.13
2022-09-20T04:41:20.884Z,2.33
2022-09-20T04:44:12.993Z,2.23
2022-09-20T04:47:01.190Z,3.00
2022-09-20T04:49:49.795Z,2.70
2022-09-20T04:53:14.920Z,3.07
2022-09-20T04:55:52.536Z,3.83
2022-09-20T04:58:42.381Z,3.40
2022-09-20T05:01:16.909Z,3.17
2022-09-20T05:04:41.421Z,3.63
2022-09-20T05:07:30.771Z,3.10
2022-09-20T05:10:20.440Z,3.40
2022-09-20T05:13:39.401Z,3.30
2022-09-20T05:16:35.369Z,3.70
2022-09-20T05:19:34.292Z,3.53
2022-09-20T05:22:10.180Z,5.70
2022-09-20T05:25:22.456Z,3.50
2022-09-20T05:28:13.953Z,4.40
2022-09-20T05:30:58.792Z,4.90
2022-09-20T05:34:03.304Z,4.50
2022-09-20T05:36:42.921Z,3.87
2022-09-20T05:39:42.913Z,3.67
2022-09-20T05:42:20.025Z,4.20
2022-09-20T05:45:05.200Z,3.20
2022-09-20T05:48:11.095Z,3.47
2022-09-20T05:51:03.639Z,3.50
2022-09-20T05:53:55.270Z,3.27
2022-09-20T05:56:42.128Z,3.80
2022-09-20T06:00:00.943Z,4.23
2022-09-20T06:03:28.112Z,4.17
2022-09-20T06:06:33.312Z,3.83
2022-09-20T06:09:09.302Z,4.10
2022-09-20T06:11:55.307Z,5.53
2022-09-20T06:14:48.618Z,5.60
2022-09-20T06:17:58.751Z,7.43
2022-09-20T06:20:47.095Z,7.07
2022-09-20T06:23:15.340Z,4.93
2022-09-20T06:25:56.373Z,3.90
2022-09-20T06:28:30.812Z,5.63
2022-09-20T06:30:58.609Z,5.90
2022-09-20T06:33:29.170Z,5.07
2022-09-20T06:36:28.019Z,3.80
2022-09-20T06:40:02.388Z,4.93
2022-09-20T06:42:30.050Z,4.57
2022-09-20T06:44:57.981Z,3.97
2022-09-20T06:47:26.411Z,4.00
2022-09-20T06:49:53.562Z,4.10
2022-09-20T06:52:23.095Z,3.47
2022-09-20T06:54:56.388Z,4.17
2022-09-20T06:57:44.118Z,3.40
2022-09-20T07:00:16.049Z,4.10
2022-09-20T07:02:43.881Z,3.80
2022-09-20T07:05:21.892Z,5.10
2022-09-20T07:07:48.998Z,4.00
2022-09-20T07:10:16.222Z,3.70
2022-09-20T07:12:43.753Z,3.90
2022-09-20T07:15:10.924Z,3.30
2022-09-20T07:17:38.059Z,4.07
2022-09-20T07:20:05.630Z,3.57
2022-09-20T07:22:32.732Z,3.43
2022-09-20T07:25:02.600Z,3.87
2022-09-20T07:27:30.172Z,4.10
2022-09-20T07:29:57.222Z,3.63
2022-09-20T07:32:24.262Z,3.40
2022-09-20T07:34:51.235Z,3.87
2022-09-20T07:37:19.586Z,3.43
2022-09-20T07:39:46.662Z,3.30
2022-09-20T07:42:14.246Z,3.80
2022-09-20T07:44:43.780Z,3.50
2022-09-20T07:47:12.656Z,3.10
2022-09-20T07:49:39.738Z,2.60
2022-09-20T07:52:07.868Z,2.43
2022-09-20T07:54:35.411Z,2.73
2022-09-20T07:57:03.090Z,2.70
2022-09-20T07:59:30.129Z,2.87
2022-09-20T08:01:59.140Z,3.47
2022-09-20T08:04:27.322Z,2.07
2022-09-20T08:06:54.373Z,2.00
2022-09-20T08:09:21.486Z,1.80
2022-09-20T08:11:48.817Z,2.33
2022-09-20T08:14:18.245Z,1.53
2022-09-20T08:16:50.676Z,1.83
2022-09-20T08:19:23.319Z,1.40
2022-09-20T08:21:53.543Z,1.50
2022-09-20T08:24:20.759Z,1.73
2022-09-20T08:26:48.812Z,1.63
2022-09-20T08:29:15.970Z,2.07
2022-09-20T08:31:43.434Z,2.07
2022-09-20T08:34:13.162Z,2.20
2022-09-20T08:36:46.034Z,1.23
2022-09-20T08:42:33.610Z,1.73
2022-09-20T08:45:21.838Z,1.75
2022-09-20T08:48:05.756Z,1.87
2022-09-20T08:50:34.840Z,1.80
2022-09-20T08:53:05.240Z,1.90
2022-09-20T08:55:40.161Z,1.50
2022-09-20T08:58:12.661Z,1.97
2022-09-20T09:00:47.644Z,1.80
2022-09-20T09:03:19.871Z,1.50
2022-09-20T09:05:55.920Z,1.60
2022-09-20T09:08:31.100Z,1.70
2022-09-20T09:11:08.740Z,1.77
2022-09-20T09:14:30.761Z,2.30
2022-09-20T09:16:58.664Z,1.97
2022-09-20T09:19:50.152Z,2.00
2022-09-20T09:22:35.402Z,2.20
2022-09-20T09:25:34.130Z,2.40
2022-09-20T09:28:14.983Z,1.80
2022-09-20T09:30:51.178Z,2.20
2022-09-20T09:33:30.949Z,2.30
2022-09-20T09:35:59.899Z,2.27
2022-09-20T09:38:44.741Z,2.00
2022-09-20T09:41:33.462Z,2.10
2022-09-20T09:44:20.321Z,1.80
2022-09-20T09:46:50.012Z,1.80
2022-09-20T09:49:25.695Z,2.73
2022-09-20T09:52:15.570Z,2.70
2022-09-20T09:54:58.602Z,3.07
2022-09-20T09:57:54.198Z,2.50
2022-09-20T10:00:25.040Z,2.00
2022-09-20T10:03:32.915Z,1.73
2022-09-20T10:06:23.788Z,1.83
2022-09-20T10:09:05.942Z,2.33
2022-09-20T10:12:03.232Z,1.80
2022-09-20T10:14:53.371Z,2.03
2022-09-20T10:17:55.849Z,2.43
2022-09-20T10:20:59.456Z,1.80
2022-09-20T10:24:06.972Z,1.70
2022-09-20T10:27:11.339Z,2.30
2022-09-20T10:30:32.636Z,2.27
2022-09-20T10:33:27.833Z,2.20
2022-09-20T10:36:04.532Z,1.83
2022-09-20T10:38:58.076Z,1.90
2022-09-20T10:42:14.012Z,1.63
2022-09-20T10:44:58.812Z,2.20
2022-09-20T10:47:39.884Z,2.43
2022-09-20T10:50:39.310Z,1.90
2022-09-20T10:53:18.874Z,2.17
2022-09-20T10:56:17.498Z,1.60
2022-09-20T10:59:19.324Z,1.40
2022-09-20T11:02:45.921Z,1.40
2022-09-20T11:05:18.892Z,1.30
2022-09-20T11:08:12.239Z,1.30
2022-09-20T11:11:22.032Z,1.50
2022-09-20T11:14:33.485Z,1.47
2022-09-20T11:17:29.146Z,1.90
2022-09-20T11:20:16.261Z,1.40
2022-09-20T11:23:22.884Z,1.10
2022-09-20T11:25:57.269Z,1.57
2022-09-20T11:28:44.964Z,1.60
2022-09-20T11:31:25.989Z,1.47
2022-09-20T11:34:00.752Z,1.53
2022-09-20T11:37:01.076Z,1.73
2022-09-20T11:40:01.252Z,1.47
2022-09-20T11:42:51.200Z,1.70
2022-09-20T11:45:28.136Z,1.87
2022-09-20T11:48:26.883Z,2.00
2022-09-20T11:51:28.052Z,2.10
2022-09-20T11:54:31.183Z,2.00
2022-09-20T11:57:00.995Z,1.53
2022-09-20T11:59:40.607Z,1.83
2022-09-20T12:02:28.758Z,1.70
2022-09-20T12:04:57.071Z,2.27
2022-09-20T12:07:43.062Z,3.93
2022-09-20T12:10:35.580Z,3.43
2022-09-20T12:13:25.534Z,2.10
2022-09-20T12:16:16.197Z,2.10
2022-09-20T12:18:56.201Z,1.40
2022-09-20T12:21:23.998Z,1.70
2022-09-20T12:23:58.654Z,1.13
2022-09-20T12:26:44.855Z,0.90
2022-09-20T12:29:26.360Z,0.80
2022-09-20T12:32:06.994Z,1.10
2022-09-20T12:34:42.409Z,1.60
2022-09-20T12:37:24.393Z,1.30
2022-09-20T12:39:56.204Z,1.43
2022-09-20T12:42:33.810Z,1.10
2022-09-20T12:45:17.314Z,0.70
2022-09-20T12:47:55.599Z,1.13
2022-09-20T12:50:42.004Z,0.77
2022-09-20T12:53:23.357Z,1.10
2022-09-20T12:56:00.724Z,1.43
2022-09-20T12:58:47.649Z,0.87
2022-09-20T13:01:14.942Z,1.10
2022-09-20T13:03:48.347Z,0.90
2022-09-20T13:06:17.194Z,0.80
2022-09-20T13:09:02.852Z,0.80
2022-09-20T13:11:39.979Z,0.90
2022-09-20T13:14:11.179Z,0.80
2022-09-20T13:16:50.875Z,1.00
2022-09-20T13:19:34.043Z,0.87
2022-09-20T13:22:01.133Z,1.20
2022-09-20T13:24:35.764Z,1.00
2022-09-20T13:27:09.597Z,0.90
2022-09-20T13:29:43.255Z,1.20
2022-09-20T13:32:17.267Z,1.00
2022-09-20T13:34:46.089Z,1.13
2022-09-20T13:37:24.056Z,1.10
2022-09-20T13:39:55.426Z,1.10
2022-09-20T13:42:23.426Z,1.40
2022-09-20T13:44:51.454Z,1.07
2022-09-20T13:47:28.538Z,0.93
2022-09-20T13:50:30.654Z,1.20
2022-09-20T13:53:02.159Z,1.43
2022-09-20T13:55:37.845Z,1.37
2022-09-20T13:58:28.626Z,0.90
2022-09-20T14:01:03.705Z,1.10
2022-09-20T14:03:34.634Z,1.33
2022-09-20T14:06:08.134Z,1.53
2022-09-20T14:08:45.934Z,1.20
2022-09-20T14:11:28.274Z,1.00
2022-09-20T14:14:05.177Z,1.23
2022-09-20T14:16:49.225Z,1.10
2022-09-20T14:19:21.332Z,0.90
2022-09-20T14:21:49.384Z,1.00
2022-09-20T14:24:16.770Z,0.80
2022-09-20T14:27:12.543Z,0.80
2022-09-20T14:29:47.596Z,0.87
2022-09-20T14:32:17.482Z,1.07
2022-09-20T14:35:21.323Z,1.20
2022-09-20T14:37:51.254Z,1.50
2022-09-20T14:40:21.252Z,1.23
2022-09-20T14:42:59.444Z,1.00
2022-09-20T14:45:39.529Z,0.97
2022-09-20T14:48:11.367Z,1.00
2022-09-20T14:50:43.641Z,0.90
2022-09-20T14:53:13.472Z,0.80
2022-09-20T14:55:58.426Z,0.80
2022-09-20T14:58:26.633Z,1.60
2022-09-20T15:01:24.611Z,1.80
2022-09-20T15:03:52.565Z,1.47
2022-09-20T15:06:19.887Z,1.50
2022-09-20T15:08:47.238Z,1.27
2022-09-20T15:11:16.231Z,1.70
2022-09-20T15:13:44.114Z,1.40
2022-09-20T15:16:17.868Z,1.50
2022-09-20T15:18:45.504Z,1.60
2022-09-20T15:21:13.005Z,1.60
2022-09-20T15:23:40.912Z,1.40
2022-09-20T15:26:10.799Z,1.10
2022-09-20T15:28:37.894Z,1.10
2022-09-20T15:31:05.158Z,1.00
2022-09-20T15:33:33.766Z,1.07
2022-09-20T15:36:03.105Z,1.17
2022-09-20T15:38:30.582Z,1.70
2022-09-20T15:41:06.275Z,1.10
2022-09-20T15:43:33.344Z,1.33
2022-09-20T15:46:16.941Z,1.60
2022-09-20T15:48:44.042Z,1.50
2022-09-20T15:51:13.102Z,1.40
2022-09-20T15:53:49.513Z,1.17
2022-09-20T15:56:25.662Z,1.40
2022-09-20T15:59:01.655Z,1.40
2022-09-20T16:01:37.375Z,1.20
2022-09-20T16:04:08.814Z,1.53
2022-09-20T16:06:37.813Z,1.17
2022-09-20T16:09:06.654Z,1.43
2022-09-20T16:11:34.397Z,1.23
2022-09-20T16:14:02.414Z,1.47
2022-09-20T16:16:38.955Z,1.30
2022-09-20T16:19:17.460Z,1.53
2022-09-20T16:21:57.689Z,1.33
2022-09-20T16:24:31.355Z,1.27
2022-09-20T16:27:03.618Z,9.40
2022-09-20T16:29:31.948Z,11.47
2022-09-20T16:32:01.462Z,3.40
2022-09-20T16:34:32.534Z,2.90
2022-09-20T16:37:02.093Z,2.93
2022-09-20T16:39:30.850Z,2.40
2022-09-20T16:42:06.580Z,3.00
2022-09-20T16:44:39.913Z,2.20
2022-09-20T16:47:18.454Z,2.40
2022-09-20T16:49:48.113Z,3.00
2022-09-20T16:52:15.553Z,1.60
2022-09-20T16:54:42.845Z,1.80
2022-09-20T16:57:10.212Z,1.90
2022-09-20T16:59:37.310Z,2.00
2022-09-20T17:02:04.449Z,1.90
2022-09-20T17:04:31.718Z,1.73
2022-09-20T17:06:59.114Z,1.50
2022-09-20T17:09:27.804Z,1.60
2022-09-20T17:11:54.855Z,1.90
2022-09-20T17:14:22.095Z,2.70
2022-09-20T17:16:50.608Z,2.80
2022-09-20T17:19:20.724Z,2.20
2022-09-20T17:21:50.729Z,2.97
2022-09-20T17:24:23.584Z,2.97
2022-09-20T17:26:51.338Z,3.30
2022-09-20T17:29:20.696Z,3.17
2022-09-20T17:31:55.602Z,3.30
2022-09-20T17:34:25.883Z,3.93
2022-09-20T17:36:57.062Z,4.00
2022-09-20T17:39:24.513Z,4.77
2022-09-20T17:41:52.695Z,4.80
2022-09-20T17:44:19.890Z,4.37
2022-09-20T17:46:50.295Z,3.63
2022-09-20T17:49:23.153Z,4.10
2022-09-20T17:51:54.082Z,3.93
2022-09-20T17:54:23.709Z,3.80
2022-09-20T17:56:54.013Z,4.10
2022-09-20T17:59:21.894Z,3.90
2022-09-20T18:01:52.802Z,3.87
2022-09-20T18:04:21.945Z,3.10
2022-09-20T18:06:55.337Z,3.97
2022-09-20T18:09:25.552Z,3.10
2022-09-20T18:11:55.765Z,3.80
2022-09-20T18:14:28.465Z,4.13
2022-09-20T18:17:02.450Z,3.80
2022-09-20T18:19:34.686Z,3.80
2022-09-20T18:22:05.824Z,4.10
2022-09-20T18:24:33.910Z,3.60
2022-09-20T18:27:01.832Z,3.63
2022-09-20T18:29:29.648Z,3.87
2022-09-20T18:31:58.095Z,4.60
2022-09-20T18:34:35.178Z,3.10
2022-09-20T18:37:09.025Z,3.70
2022-09-20T18:39:39.064Z,3.50
2022-09-20T18:42:08.508Z,3.67
2022-09-20T18:44:37.736Z,3.83
2022-09-20T18:47:06.444Z,2.80
2022-09-20T18:49:34.840Z,3.30
2022-09-20T18:52:04.171Z,3.50
2022-09-20T18:54:34.279Z,3.17
2022-09-20T18:57:03.007Z,3.17
2022-09-20T18:59:30.914Z,3.43
2022-09-20T19:02:19.153Z,2.77
2022-09-20T19:05:44.221Z,2.57
2022-09-20T19:08:27.337Z,3.03
2022-09-20T19:11:03.853Z,2.67
2022-09-20T19:13:51.037Z,2.07
2022-09-20T19:16:25.222Z,2.20
2022-09-20T19:19:22.293Z,2.53
2022-09-20T19:22:17.003Z,2.67
2022-09-20T19:25:24.563Z,2.00
2022-09-20T19:28:02.401Z,2.80
2022-09-20T19:30:47.089Z,2.50
2022-09-20T19:33:32.847Z,2.43
2022-09-20T19:36:17.929Z,2.53
2022-09-20T19:39:01.510Z,2.73
2022-09-20T19:42:07.022Z,2.90
2022-09-20T19:45:10.481Z,2.40
2022-09-20T19:48:16.321Z,2.73
2022-09-20T19:50:46.860Z,2.70
2022-09-20T19:53:18.452Z,2.60
2022-09-20T19:56:04.231Z,2.73
2022-09-20T19:58:32.350Z,2.87
2022-09-20T20:00:59.564Z,2.80
2022-09-20T20:03:31.698Z,2.50
2022-09-20T20:06:30.935Z,2.90
2022-09-20T20:09:37.650Z,2.70
2022-09-20T20:12:35.041Z,2.80
2022-09-20T20:15:48.046Z,2.57
2022-09-20T20:18:28.996Z,2.83
2022-09-20T20:20:59.289Z,2.73
2022-09-20T20:24:16.304Z,3.30
2022-09-20T20:26:45.540Z,2.67
2022-09-20T20:29:14.554Z,2.97
2022-09-20T20:31:45.029Z,3.07
2022-09-20T20:34:22.725Z,3.40
2022-09-20T20:36:52.702Z,2.73
2022-09-20T20:39:19.811Z,2.77
2022-09-20T20:41:52.924Z,2.70
2022-09-20T20:44:21.041Z,3.03
2022-09-20T20:46:48.821Z,3.07
2022-09-20T20:49:17.052Z,3.30
2022-09-20T20:51:44.521Z,2.97
2022-09-20T20:54:12.322Z,3.33
2022-09-20T20:56:39.482Z,3.03
2022-09-20T20:59:07.113Z,3.10
2022-09-20T21:01:37.738Z,3.57
2022-09-20T21:04:08.026Z,2.80
2022-09-20T21:06:38.502Z,2.40
2022-09-20T21:09:06.873Z,2.97
2022-09-20T21:11:43.891Z,2.80
2022-09-20T21:14:12.871Z,2.90
2022-09-20T21:16:43.578Z,2.77
2022-09-20T21:19:15.297Z,2.43
2022-09-20T21:21:45.002Z,2.43
2022-09-20T21:24:17.663Z,2.53
2022-09-20T21:26:46.603Z,2.67
2022-09-20T21:29:16.290Z,2.70
2022-09-20T21:31:46.813Z,2.40
2022-09-20T21:34:16.040Z,2.00
2022-09-20T21:36:47.031Z,3.10
2022-09-20T21:39:14.123Z,2.30
2022-09-20T21:41:41.651Z,2.43
2022-09-20T21:44:12.559Z,2.50
2022-09-20T21:46:41.981Z,2.77
2022-09-20T21:49:12.268Z,2.37
2022-09-20T21:51:42.999Z,3.03
2022-09-20T21:54:11.098Z,2.73
2022-09-20T21:56:40.602Z,2.97
2022-09-20T21:59:08.511Z,3.50
2022-09-20T22:01:39.477Z,3.40
2022-09-20T22:04:12.227Z,3.03
2022-09-20T22:06:42.658Z,3.50
2022-09-20T22:09:12.217Z,3.80
2022-09-20T22:11:45.870Z,3.50
2022-09-20T22:14:15.395Z,3.20
2022-09-20T22:16:44.899Z,4.43
2022-09-20T22:19:15.104Z,3.30
2022-09-20T22:21:45.821Z,3.60
2022-09-20T22:24:14.765Z,3.67
2022-09-20T22:26:46.869Z,3.70
2022-09-20T22:29:15.062Z,3.60
2022-09-20T22:31:45.850Z,3.30
2022-09-20T22:34:21.611Z,3.70
2022-09-20T22:36:49.649Z,4.17
2022-09-20T22:39:17.358Z,3.90
2022-09-20T22:41:45.323Z,4.00
2022-09-20T22:44:12.452Z,3.80
2022-09-20T22:46:40.900Z,3.93
2022-09-20T22:49:09.801Z,3.40
2022-09-20T22:51:37.693Z,3.80
2022-09-20T22:54:11.309Z,4.20
2022-09-20T22:56:42.543Z,3.30
2022-09-20T22:59:15.153Z,3.70
2022-09-20T23:01:45.525Z,3.73
2022-09-20T23:04:16.858Z,4.07
2022-09-20T23:06:52.130Z,4.03
2022-09-20T23:09:19.331Z,4.00
2022-09-20T23:11:48.383Z,3.87
2022-09-20T23:14:21.262Z,3.53
2022-09-20T23:16:48.893Z,3.37
2022-09-20T23:19:16.973Z,3.33
2022-09-20T23:21:45.105Z,3.50
2022-09-20T23:24:14.866Z,4.23
2022-09-20T23:26:43.903Z,3.77
2022-09-20T23:29:20.170Z,3.70
2022-09-20T23:31:48.044Z,3.57
2022-09-20T23:34:16.694Z,3.83
2022-09-20T23:36:45.195Z,4.13
2022-09-20T23:39:13.201Z,3.77
2022-09-20T23:41:41.871Z,3.80
2022-09-20T23:44:10.444Z,3.67
2022-09-20T23:46:38.821Z,4.00
2022-09-20T23:49:07.090Z,4.17
2022-09-20T23:51:35.665Z,4.17
2022-09-20T23:54:03.719Z,3.50
2022-09-20T23:56:31.313Z,4.13
2022-09-20T23:58:58.351Z,4.17
